Latest Weather Observations for Mount Boyce

IDN60801

Issued at 3:52 am EDT Sunday 16 December 2018 (issued every 10 minutes, with the page automatically refreshed every 10 minutes)

About weather observations | Map of weather stations | Latest weather observations for NSW | Other Formats
Station Details ID: 063292 Name: MOUNT BOYCE AWS Lat: -33.62 Lon: 150.27 Height: 1080.0 m
Data from the previous 72 hours. | See also: Recent months at Mount Boyce
Date/Time
EDT
Temp
°C
App
Temp
°C
Dew
Point
°C
Rel
Hum
%
Delta-T
°C
Wind Press
QNH
hPa
Press
MSL
hPa
Rain since
9am
mm
Dir  Spd
km/h
Gust
km/h
Spd
kts
Gust
kts
16/03:30am 17.1 16.5 14.7 86 1.5 NNE 11 19 6 10 - - 21.4
16/03:00am 16.7 16.7 15.1 90 1.0 NE 9 19 5 10 - - 21.4
16/02:30am 16.3 16.0 14.5 89 1.1 NE 9 17 5 9 - - 21.4
16/02:00am 16.6 15.8 15.0 90 1.0 NNE 13 19 7 10 - - 21.4
16/01:30am 16.5 16.2 15.4 93 0.7 NNE 11 17 6 9 - - 21.4
16/01:00am 15.9 15.9 15.1 95 0.5 NE 9 19 5 10 - - 21.4
16/12:30am 15.8 15.3 15.0 95 0.5 NE 11 17 6 9 - - 21.4
16/12:12am 15.7 14.9 15.1 96 0.4 NE 13 20 7 11 - - 21.4
16/12:00am 15.7 15.3 15.1 96 0.4 NE 11 20 6 11 - - 21.4
 
Date/Time
EDT
Temp
°C
App
Temp
°C
Dew
Point
°C
Rel
Hum
%
Delta-T
°C
Wind Press
QNH
hPa
Press
MSL
hPa
Rain since
9am
mm
Dir  Spd
km/h
Gust
km/h
Spd
kts
Gust
kts
15/11:30pm 15.8 15.4 15.2 96 0.4 NE 11 19 6 10 - - 21.4
15/11:08pm 15.7 15.7 15.2 97 0.3 NE 9 17 5 9 - - 21.4
15/11:00pm 15.6 15.6 15.1 97 0.3 NE 9 15 5 8 - - 21.4
15/10:30pm 15.0 14.4 14.5 97 0.3 ENE 11 13 6 7 - - 21.4
15/10:00pm 15.0 14.3 14.4 96 0.4 ENE 11 15 6 8 - - 21.2
15/09:30pm 14.9 14.1 13.9 94 0.6 ENE 11 17 6 9 - - 21.2
15/09:00pm 16.3 14.3 14.0 86 1.4 ENE 17 30 9 16 - - 6.8
15/08:46pm 17.1 16.6 15.8 92 0.8 ENE 13 19 7 10 - - 1.0
15/08:30pm 17.3 16.6 15.3 88 1.2 ENE 13 20 7 11 - - 0.8
15/08:00pm 17.5 17.1 15.3 87 1.3 ENE 11 17 6 9 - - 0.8
15/07:30pm 18.1 17.7 15.2 83 1.8 ENE 11 19 6 10 - - 0.8
15/07:00pm 20.1 20.1 15.3 74 3.0 ENE 9 15 5 8 - - 0.8
15/06:30pm 20.7 20.6 15.0 70 3.5 E 9 20 5 11 - - 0.8
15/06:00pm 21.8 21.0 12.9 57 5.3 NE 9 17 5 9 - - 0.8
15/05:30pm 22.1 21.1 13.5 58 5.2 NNW 11 20 6 11 - - 0.8
15/05:00pm 19.6 19.5 15.0 75 2.8 N 9 20 5 11 - - 0.8
15/04:46pm 18.3 18.4 15.6 84 1.7 NNE 9 15 5 8 - - 0.8
15/04:30pm 18.4 18.0 16.2 87 1.4 NE 13 28 7 15 - - 0.8
15/04:16pm 18.6 15.7 14.1 75 2.7 N 22 41 12 22 - - 0.2
15/04:00pm 22.8 20.4 12.7 53 6.1 NNW 17 32 9 17 - - 0.2
15/03:30pm 22.4 20.8 12.9 55 5.7 NNE 13 28 7 15 - - 0.2
15/03:00pm 23.6 21.9 12.3 49 6.8 NNE 13 22 7 12 - - 0.2
15/02:30pm 22.5 19.5 11.9 51 6.3 N 19 39 10 21 - - 0.2
15/02:00pm 23.7 21.3 11.4 46 7.3 N 15 30 8 16 - - 0.2
15/01:30pm 23.1 20.9 12.1 50 6.5 N 15 26 8 14 - - 0.2
15/01:00pm 22.5 19.8 13.0 55 5.7 N 19 39 10 21 - - 0.2
15/12:30pm 23.6 23.3 15.4 60 5.2 NNE 11 20 6 11 - - 0.2
15/12:00pm 21.9 20.8 13.0 57 5.3 NNE 11 20 6 11 - - 0.2
15/11:30am 21.1 18.7 12.5 58 5.1 NNE 17 26 9 14 - - 0.2
15/11:00am 21.1 19.7 13.5 62 4.6 N 13 37 7 20 - - 0.2
15/10:30am 19.4 19.5 14.0 71 3.3 NNE 6 13 3 7 - - 0.2
15/10:05am 19.1 19.4 14.6 75 2.7 NNE 6 15 3 8 - - 0.2
15/10:00am 19.2 19.5 14.5 74 2.9 NNE 6 19 3 10 - - 0.2
15/09:30am 19.0 19.2 15.7 81 2.1 NE 9 17 5 9 - - 0.0
15/09:22am 18.8 19.2 15.3 80 2.2 NE 7 15 4 8 - - 0.0
15/09:00am 18.5 18.6 15.4 82 1.9 ENE 9 19 5 10 - - 7.0
15/08:30am 18.5 17.6 13.8 74 2.8 N 11 22 6 12 - - 7.0
15/08:00am 17.7 17.4 14.4 81 2.0 N 9 17 5 9 - - 7.0
15/07:30am 16.7 16.3 14.2 85 1.5 NNE 9 19 5 10 - - 7.0
15/07:00am 16.1 16.0 13.9 87 1.3 N 7 20 4 11 - - 7.0
15/06:30am 15.7 15.2 13.9 89 1.1 N 9 17 5 9 - - 7.0
15/06:00am 15.3 14.9 14.0 92 0.8 NNW 9 13 5 7 - - 7.0
15/05:30am 15.3 14.7 14.7 96 0.4 NNW 11 19 6 10 - - 7.0
15/05:28am 15.1 14.8 14.5 96 0.4 N 9 17 5 9 - - 7.0
15/05:25am 15.1 14.9 14.6 97 0.3 N 9 15 5 8 - - 7.0
15/05:00am 15.2 15.5 14.9 98 0.2 NE 7 13 4 7 - - 7.0
15/04:30am 15.5 15.1 15.3 99 0.1 NE 11 24 6 13 - - 7.0
15/04:00am 15.6 15.3 15.4 99 0.1 NE 11 22 6 12 - - 7.0
15/03:30am 15.7 15.8 15.5 99 0.1 ENE 9 17 5 9 - - 7.0
15/03:00am 15.9 16.5 15.7 99 0.1 NE 7 11 4 6 - - 7.0
15/02:30am 15.8 15.5 15.5 98 0.2 NE 11 19 6 10 - - 7.0
15/02:00am 16.1 16.7 15.9 99 0.1 ENE 7 13 4 7 - - 7.0
15/01:30am 16.0 15.8 15.8 99 0.1 NE 11 20 6 11 - - 7.0
15/01:00am 16.0 15.8 15.8 99 0.1 NE 11 19 6 10 - - 7.0
15/12:30am 16.0 16.2 15.8 99 0.1 NE 9 20 5 11 - - 7.0
15/12:00am 16.0 16.6 15.8 99 0.1 NE 7 20 4 11 - - 7.0
 
Date/Time
EDT
Temp
°C
App
Temp
°C
Dew
Point
°C
Rel
Hum
%
Delta-T
°C
Wind Press
QNH
hPa
Press
MSL
hPa
Rain since
9am
mm
Dir  Spd
km/h
Gust
km/h
Spd
kts
Gust
kts
14/11:30pm 16.0 16.6 15.8 99 0.1 ENE 7 15 4 8 - - 6.8
14/11:00pm 16.1 16.7 15.8 98 0.2 ENE 7 13 4 7 - - 6.8
14/10:30pm 16.1 16.6 15.6 97 0.3 ENE 7 15 4 8 - - 6.8
14/10:00pm 16.1 16.2 15.5 96 0.4 ENE 9 13 5 7 - - 6.8
14/09:30pm 16.0 16.1 15.5 97 0.3 ENE 9 17 5 9 - - 6.8
14/09:00pm 15.9 15.5 15.3 96 0.4 ENE 11 20 6 11 - - 6.8
14/08:30pm 16.0 15.9 15.0 94 0.6 ENE 9 15 5 8 - - 6.8
14/08:00pm 16.3 16.8 15.5 95 0.5 ENE 7 13 4 7 - - 6.8
14/07:30pm 16.4 16.1 15.4 94 0.6 ENE 11 19 6 10 - - 6.8
14/07:00pm 16.5 16.6 15.4 93 0.7 ENE 9 17 5 9 - - 6.8
14/06:30pm 16.8 16.4 15.3 91 0.9 ENE 11 20 6 11 - - 6.8
14/06:26pm 16.9 17.0 15.4 91 0.9 ENE 9 24 5 13 - - 6.8
14/06:00pm 18.0 17.4 15.6 86 1.5 ENE 13 28 7 15 - - 6.8
14/05:30pm 18.1 17.2 15.9 87 1.4 ENE 15 28 8 15 - - 6.8
14/05:00pm 18.4 18.5 15.6 84 1.7 ENE 9 20 5 11 - - 6.8
14/04:30pm 18.4 17.7 15.3 82 1.9 ENE 13 28 7 15 - - 6.8
14/04:00pm 18.2 18.3 16.5 90 1.1 ENE 11 20 6 11 - - 6.8
14/03:30pm 17.9 17.9 16.2 90 1.1 ENE 11 19 6 10 - - 6.8
14/03:11pm 17.8 18.5 17.0 95 0.5 ENE 9 19 5 10 - - 6.8
14/03:09pm 17.6 18.2 16.8 95 0.5 ENE 9 19 5 10 - - 6.8
14/03:00pm 17.1 17.0 16.1 94 0.6 ENE 11 17 6 9 - - 6.8
14/02:58pm 17.2 17.2 16.2 94 0.6 ENE 11 19 6 10 - - 6.8
14/02:42pm 16.8 16.1 15.5 92 0.8 NE 13 32 7 17 - - 6.8
14/02:30pm 17.5 15.8 14.8 84 1.6 NE 17 28 9 15 - - 6.6
14/02:00pm 19.2 19.5 17.9 92 0.8 ENE 13 28 7 15 - - 6.6
14/01:44pm 18.1 18.6 17.5 96 0.4 ENE 11 20 6 11 - - 6.6
14/01:30pm 17.0 16.9 15.9 93 0.7 ENE 11 24 6 13 - - 6.6
14/01:00pm 16.4 15.9 15.9 97 0.3 ENE 13 24 7 13 - - 6.6
14/12:32pm 15.1 13.1 13.8 92 0.8 NE 17 32 9 17 - - 5.6
14/12:30pm 15.1 13.0 13.5 90 0.9 NE 17 32 9 17 - - 5.6
14/12:00pm 17.7 17.2 15.9 89 1.1 ENE 13 24 7 13 - - 5.0
14/11:49am 17.6 17.4 16.8 95 0.5 ENE 13 20 7 11 - - 5.0
14/11:44am 16.8 16.8 16.3 97 0.3 ENE 11 20 6 11 - - 5.0
14/11:30am 15.9 15.2 15.3 96 0.4 ENE 13 30 7 16 - - 5.0
14/11:00am 16.5 18.1 15.9 96 0.4 N 2 7 1 4 - - 1.6
14/10:37am 16.6 17.4 15.8 95 0.5 NNW 6 15 3 8 - - 0.6
14/10:32am 16.7 17.9 15.9 95 0.5 NE 4 9 2 5 - - 0.6
14/10:30am 16.6 17.8 15.8 95 0.5 NE 4 9 2 5 - - 0.6
14/10:00am 16.6 16.7 15.6 94 0.6 ENE 9 13 5 7 - - 0.2
14/09:56am 16.7 16.8 15.6 93 0.7 ENE 9 17 5 9 - - 0.2
14/09:30am 16.7 17.3 15.2 91 0.9 ENE 6 15 3 8 - - 0.0
14/09:00am 17.6 18.4 15.9 90 1.1 ENE 6 13 3 7 - - 7.0
14/08:30am 17.4 18.2 16.4 94 0.6 ENE 7 15 4 8 - - 7.0
14/08:24am 17.5 18.6 17.0 97 0.3 ENE 7 15 4 8 - - 7.0
14/08:00am 16.2 16.8 15.9 98 0.2 ENE 7 13 4 7 - - 7.0
14/07:30am 15.7 16.3 15.4 98 0.2 ENE 6 9 3 5 - - 7.0
14/07:00am 15.3 15.2 15.0 98 0.2 ENE 9 13 5 7 - - 7.0
14/06:30am 15.1 15.5 14.8 98 0.2 NE 6 11 3 6 - - 7.0
14/06:00am 15.2 15.5 14.9 98 0.2 ENE 7 15 4 8 - - 7.0
14/05:30am 15.0 15.1 14.5 97 0.3 ENE 7 11 4 6 - - 7.0
14/05:00am 15.0 15.1 14.4 96 0.4 ENE 7 11 4 6 - - 7.0
14/04:47am 14.9 14.5 14.1 95 0.5 ENE 9 19 5 10 - - 7.0
14/04:39am 15.0 14.5 13.9 93 0.7 NE 9 19 5 10 - - 7.0
14/04:30am 15.5 15.0 13.9 90 1.0 NNW 9 17 5 9 - - 7.0
14/04:00am 15.6 14.9 14.3 92 0.8 WNW 11 20 6 11 - - 7.0
14/03:30am 15.8 15.2 14.5 92 0.8 N 11 19 6 10 - - 7.0
14/03:00am 15.9 15.4 14.8 93 0.7 NNE 11 17 6 9 - - 7.0
14/02:49am 15.9 15.9 15.1 95 0.5 NNE 9 19 5 10 - - 7.0
14/02:30am 15.5 14.6 14.9 96 0.4 NE 13 19 7 10 - - 7.0
14/02:08am 15.5 15.2 14.5 94 0.6 NE 9 19 5 10 - - 7.0
14/02:00am 15.7 15.5 14.7 94 0.6 NE 9 15 5 8 - - 7.0
14/01:30am 16.2 17.3 14.7 91 0.9 NNW 2 11 1 6 - - 7.0
14/01:14am 16.2 16.3 15.6 96 0.4 N 9 15 5 8 - - 7.0
14/01:04am 16.0 16.2 15.7 98 0.2 NNE 9 15 5 8 - - 7.0
14/01:00am 16.0 16.2 15.7 98 0.2 NE 9 15 5 8 - - 7.0
14/12:39am 15.9 15.7 15.6 98 0.2 ENE 11 15 6 8 - - 7.0
14/12:30am 16.0 15.8 15.7 98 0.2 ENE 11 17 6 9 - - 7.0
14/12:20am 16.1 15.6 15.8 98 0.2 ENE 13 17 7 9 - - 7.0
14/12:00am 16.1 15.6 15.9 99 0.1 NE 13 19 7 10 - - 7.0
 
Date/Time
EDT
Temp
°C
App
Temp
°C
Dew
Point
°C
Rel
Hum
%
Delta-T
°C
Wind Press
QNH
hPa
Press
MSL
hPa
Rain since
9am
mm
Dir  Spd
km/h
Gust
km/h
Spd
kts
Gust
kts
13/11:57pm 16.2 15.7 16.0 99 0.1 NE 13 19 7 10 - - 7.0
13/11:34pm 16.3 16.2 16.1 99 0.1 NE 11 20 6 11 - - 7.0
13/11:30pm 16.3 15.9 16.1 99 0.1 NNE 13 20 7 11 - - 7.0
13/11:15pm 16.5 16.9 16.3 99 0.1 NE 9 20 5 11 - - 7.0
13/11:00pm 16.6 17.0 16.4 99 0.1 NE 9 15 5 8 - - 7.0
13/10:30pm 16.4 17.7 16.1 98 0.2 ENE 4 9 2 5 - - 7.0
13/10:00pm 16.4 17.3 16.1 98 0.2 ENE 6 15 3 8 - - 7.0
13/09:30pm 16.3 16.6 16.0 98 0.2 ENE 9 17 5 9 - - 7.0
13/09:01pm 16.0 16.5 15.5 97 0.3 ENE 7 13 4 7 - - 7.0
13/09:00pm 16.0 16.1 15.5 97 0.3 ENE 9 15 5 8 - - 7.0
13/08:50pm 15.8 15.8 15.2 96 0.4 ENE 9 13 5 7 - - 7.0
13/08:42pm 15.5 15.3 14.7 95 0.5 ENE 9 13 5 7 - - 7.0
13/08:30pm 15.3 14.9 14.2 93 0.7 ENE 9 11 5 6 - - 7.0
13/08:25pm 15.3 14.9 14.2 93 0.7 ENE 9 13 5 7 - - 7.0
13/08:00pm 15.5 15.5 14.2 92 0.8 SW 7 9 4 5 - - 7.0
13/07:30pm 15.4 15.2 14.8 96 0.4 SE 9 17 5 9 - - 7.0
13/07:00pm 14.6 11.5 13.5 93 0.6 WNW 22 54 12 29 - - 4.0
13/06:49pm 14.4 7.8 12.6 89 1.0 WSW 39 67 21 36 - - 2.0
13/06:35pm 19.1 17.9 13.9 72 3.1 NE 13 54 7 29 - - 1.6
13/06:30pm 19.9 21.2 17.5 86 1.5 ENE 7 13 4 7 - - 1.6
13/06:00pm 21.1 22.0 16.5 75 2.9 NE 7 11 4 6 - - 1.6
13/05:30pm 21.5 21.7 15.8 70 3.6 NNE 9 15 5 8 - - 1.6
13/05:00pm 22.5 22.3 15.8 66 4.2 NNW 11 28 6 15 - - 1.6
13/04:30pm 22.7 22.9 15.8 65 4.4 NNW 9 19 5 10 - - 1.6
13/04:00pm 22.1 21.9 16.6 71 3.5 N 13 20 7 11 - - 1.6
13/03:30pm 20.7 20.4 16.5 77 2.7 N 13 22 7 12 - - 1.6
13/03:14pm 19.3 19.0 16.5 84 1.8 NNE 13 24 7 13 - - 1.6
13/03:00pm 18.8 17.3 15.3 80 2.2 NNE 17 28 9 15 - - 1.6
13/02:54pm 20.9 20.6 16.5 76 2.8 NNE 13 28 7 15 - - 1.0
13/02:30pm 23.3 21.8 14.3 57 5.6 NW 15 28 8 15 - - 0.0
13/02:00pm 24.1 23.4 15.3 58 5.5 NW 13 24 7 13 - - 0.0
13/01:30pm 23.5 21.5 15.0 59 5.3 WNW 19 32 10 17 - - 0.0
13/01:00pm 23.3 21.2 14.8 59 5.3 WNW 19 32 10 17 - - 0.0
13/12:30pm 22.0 19.7 14.6 63 4.6 WNW 20 37 11 20 - - 0.0
13/12:00pm 21.5 18.9 14.9 66 4.1 WNW 22 37 12 20 - - 0.0
13/11:30am 21.2 19.6 15.1 68 3.8 WNW 17 32 9 17 - - 0.0
13/11:00am 20.1 17.6 14.2 69 3.6 WNW 20 39 11 21 - - 0.0
13/10:30am 19.7 16.8 14.1 70 3.4 WNW 22 37 12 20 - - 0.0
13/10:00am 18.2 16.0 14.3 78 2.4 W 19 33 10 18 - - 0.0
13/09:55am 17.8 15.8 13.9 78 2.3 W 17 32 9 17 - - 0.0
13/09:39am 17.8 16.3 15.2 85 1.6 W 17 24 9 13 - - 0.0
13/09:37am 17.4 15.8 15.0 86 1.5 W 17 24 9 13 - - 0.0
13/09:30am 16.9 15.1 14.5 86 1.4 W 17 24 9 13 - - 0.0
13/09:26am 16.8 15.0 14.4 86 1.4 W 17 24 9 13 - - 0.0
13/09:17am 16.6 14.2 14.4 87 1.3 W 20 33 11 18 - - 0.0
13/09:00am 16.2 13.0 14.2 88 1.2 W 24 41 13 22 - - 3.0
13/08:32am 16.4 12.4 14.1 86 1.4 WNW 28 50 15 27 - - 3.0
13/08:30am 16.4 12.4 14.1 86 1.4 WNW 28 43 15 23 - - 3.0
13/08:18am 16.4 12.4 14.1 86 1.4 W 28 52 15 28 - - 3.0
13/08:00am 15.9 11.4 13.9 88 1.2 W 30 46 16 25 - - 3.0
13/07:31am 15.7 11.6 13.7 88 1.2 WNW 28 48 15 26 - - 3.0
13/07:30am 15.7 11.9 13.7 88 1.2 W 26 48 14 26 - - 3.0
13/07:06am 15.5 13.3 13.3 87 1.3 W 17 30 9 16 - - 3.0
13/07:00am 15.6 13.0 13.3 86 1.4 W 19 30 10 16 - - 3.0
13/06:30am 15.3 12.9 12.6 84 1.6 WNW 17 30 9 16 - - 3.0
13/06:00am 15.6 12.6 11.8 78 2.2 NNW 19 33 10 18 - - 2.8
13/05:30am 14.4 12.7 12.4 88 1.1 W 13 22 7 12 - - 2.8
13/05:00am 14.2 13.3 12.6 90 0.9 NW 9 15 5 8 - - 2.8
13/04:30am 14.1 13.1 13.5 96 0.4 W 11 17 6 9 - - 2.8
13/04:00am 14.4 11.7 13.6 95 0.5 W 20 32 11 17 - - 2.4

Other Formats:

Comma delimited format used in spreadsheet applications
http://www.bom.gov.au/fwo/IDN60801/IDN60801.94743.axf

JavaScript Object Notation format (JSON) in row-major order
http://www.bom.gov.au/fwo/IDN60801/IDN60801.94743.json